Galena, Nevada Weather observations

Data are for 10 minute period ending at time listed.
 Day   Time    Ave.   Ave.  Ave.  Vector   Max.   Total    Solar   
  of    of     Air    Rel.  Wind   Wind    Wind  Precip.   Rad.    
Year   Day     Temp.  Hum.  Speed  Dir.    Gust                    
2016   (PST)    F      %     mph   deg.    mph     in.     W/m2    
------------------------------------------------------------------- 
 242   21:00   68.0    21    4.0   351      9.0    0.01       0  
 242   22:00   64.0    22    6.0   318      8.0    0.01       0  
 242   23:00   62.0    24    5.0   315      8.0    0.01       0  
 243    0:00   61.0    25    3.0   304      6.0    0.01       0  
 243    1:00   60.0    27    4.0   321      6.0    0.01       0  
 243    2:00   61.0    27    5.0   316      8.0    0.01       0  
 243    3:00   61.0    28    2.0   314      7.0    0.01       0  
 243    4:00   61.0    27    3.0   354      6.0    0.01       0  
 243    5:00   62.0    26    2.0   206      7.0    0.01       0  
 243    6:00   61.0    27    5.0     2      7.0    0.01       4  
 243    7:00   64.0    27    3.0     0      8.0    0.01      59  
 243    8:00   70.0    22    3.0    39      8.0    0.01     235  
 243    9:00   78.0    14   13.0   192     21.0    0.01     564  
 243   10:00   77.0    17   11.0   167     20.0    0.01     678  
 243   11:00   81.0    13   14.0   173     28.0    0.01     992  
 243   12:00   80.0    12   12.0   195     22.0    0.01     416  
 243   13:00   83.0    11   17.0   217     35.0    0.01     932  
 243   14:00   84.0    12   15.0   224     31.0    0.01     872  
 243   15:00   83.0    13   15.0   217     32.0    0.01     759  
 243   16:00   82.0    12   12.0   226     29.0    0.01     587  
 243   17:00   81.0    13   10.0   216     24.0    0.01     397  
 243   18:00   77.0    15    5.0   134     22.0    0.01      97  
 243   19:00   72.0    17    6.0   192     18.0    0.01      11  
 243   20:00   74.0    12   21.0   228     39.0    0.01       0  

Return to Galena, Nevada graphs page.


Western Regional Climate Center,wrcc@dri.edu